createdAt,value
2022-10-18T00:00:58.248Z,9.52
2022-10-18T00:02:21.781Z,10.75
2022-10-18T00:03:45.406Z,9.43
2022-10-18T00:05:09.476Z,13.10
2022-10-18T00:06:31.839Z,9.32
2022-10-18T00:07:55.262Z,11.00
2022-10-18T00:09:17.704Z,14.30
2022-10-18T00:10:41.063Z,11.10
2022-10-18T00:12:03.604Z,13.23
2022-10-18T00:13:27.008Z,15.02
2022-10-18T00:14:50.993Z,12.27
2022-10-18T00:16:17.250Z,8.57
2022-10-18T00:17:40.229Z,8.02
2022-10-18T00:19:03.614Z,9.10
2022-10-18T00:20:26.095Z,8.40
2022-10-18T00:21:51.991Z,7.78
2022-10-18T00:23:14.340Z,9.57
2022-10-18T00:24:37.745Z,7.13
2022-10-18T00:26:02.377Z,8.82
2022-10-18T00:27:25.805Z,11.07
2022-10-18T00:28:51.144Z,9.35
2022-10-18T00:30:14.807Z,7.10
2022-10-18T00:31:39.943Z,7.93
2022-10-18T00:33:02.333Z,10.70
2022-10-18T00:34:25.747Z,11.20
2022-10-18T00:35:48.877Z,8.40
2022-10-18T00:37:12.232Z,10.98
2022-10-18T00:38:34.646Z,8.25
2022-10-18T00:39:58.015Z,8.85
2022-10-18T00:41:23.234Z,9.15
2022-10-18T00:42:46.815Z,8.90
2022-10-18T00:44:42.523Z,8.23
2022-10-18T00:46:05.991Z,8.25
2022-10-18T00:47:30.265Z,10.52
2022-10-18T00:50:22.499Z,10.43
2022-10-18T00:51:47.911Z,11.02
2022-10-18T00:53:15.400Z,10.52
2022-10-18T00:54:39.486Z,10.25
2022-10-18T00:56:02.849Z,7.22
2022-10-18T00:57:25.615Z,7.05
2022-10-18T00:58:49.704Z,6.80
2022-10-18T01:00:14.151Z,7.50
2022-10-18T01:01:37.547Z,6.82
2022-10-18T01:03:01.420Z,8.45
2022-10-18T01:04:25.231Z,13.40
2022-10-18T01:05:49.551Z,9.32
2022-10-18T01:07:31.425Z,7.55
2022-10-18T01:09:07.778Z,11.95
2022-10-18T01:10:34.650Z,8.02
2022-10-18T01:12:08.425Z,8.35
2022-10-18T01:13:39.637Z,8.13
2022-10-18T01:15:07.371Z,8.07
2022-10-18T01:16:36.269Z,9.25
2022-10-18T01:18:10.573Z,8.57
2022-10-18T01:19:55.165Z,10.25
2022-10-18T01:21:24.548Z,5.55
2022-10-18T01:22:51.519Z,7.63
2022-10-18T01:25:09.842Z,9.38
2022-10-18T01:26:42.622Z,8.65
2022-10-18T01:28:16.564Z,6.60
2022-10-18T01:29:47.708Z,7.13
2022-10-18T01:31:15.136Z,8.80
2022-10-18T01:32:41.237Z,8.95
2022-10-18T01:34:06.899Z,12.75
2022-10-18T01:35:35.037Z,7.18
2022-10-18T01:36:58.863Z,9.60
2022-10-18T01:38:21.739Z,8.95
2022-10-18T01:39:47.854Z,7.57
2022-10-18T01:41:15.628Z,10.95
2022-10-18T01:42:39.495Z,10.75
2022-10-18T01:44:04.478Z,12.88
2022-10-18T01:45:26.948Z,7.93
2022-10-18T01:46:53.337Z,8.57
2022-10-18T01:48:16.566Z,7.75
2022-10-18T01:49:39.948Z,9.80
2022-10-18T01:51:03.388Z,11.57
2022-10-18T01:52:25.832Z,9.70
2022-10-18T01:53:49.231Z,9.35
2022-10-18T01:55:11.599Z,10.90
2022-10-18T01:56:42.866Z,12.23
2022-10-18T01:58:09.232Z,10.95
2022-10-18T01:59:40.899Z,11.57
2022-10-18T02:01:07.011Z,12.65
2022-10-18T02:02:42.531Z,11.18
2022-10-18T02:04:11.992Z,8.13
2022-10-18T02:05:41.127Z,8.30
2022-10-18T02:07:11.186Z,11.38
2022-10-18T02:08:37.439Z,9.70
2022-10-18T02:10:05.946Z,10.73
2022-10-18T02:11:30.344Z,9.27
2022-10-18T02:12:55.169Z,7.90
2022-10-18T02:14:21.293Z,12.05
2022-10-18T02:15:47.281Z,9.10
2022-10-18T02:17:10.984Z,9.02
2022-10-18T02:18:37.688Z,8.15
2022-10-18T02:20:02.649Z,9.68
2022-10-18T02:21:27.802Z,10.07
2022-10-18T02:22:52.300Z,9.98
2022-10-18T02:24:16.144Z,9.70
2022-10-18T02:25:40.775Z,9.07
2022-10-18T02:27:03.620Z,9.80
2022-10-18T02:28:27.065Z,9.63
2022-10-18T02:29:49.611Z,12.43
2022-10-18T02:31:16.980Z,8.88
2022-10-18T02:32:41.745Z,8.63
2022-10-18T02:34:10.654Z,9.20
2022-10-18T02:35:36.585Z,9.63
2022-10-18T02:37:01.145Z,13.27
2022-10-18T02:38:24.786Z,15.50
2022-10-18T02:39:50.059Z,7.00
2022-10-18T02:41:12.520Z,19.40
2022-10-18T02:42:37.275Z,10.02
2022-10-18T02:43:59.696Z,8.85
2022-10-18T02:45:23.375Z,9.48
2022-10-18T02:46:46.378Z,11.57
2022-10-18T02:48:09.777Z,12.55
2022-10-18T02:49:34.582Z,12.13
2022-10-18T02:50:57.948Z,6.88
2022-10-18T02:52:20.305Z,7.70
2022-10-18T02:53:43.707Z,7.03
2022-10-18T02:55:08.509Z,12.52
2022-10-18T02:56:30.860Z,8.35
2022-10-18T02:57:54.216Z,8.13
2022-10-18T02:59:16.668Z,10.63
2022-10-18T03:00:40.043Z,11.00
2022-10-18T03:02:03.389Z,13.10
2022-10-18T03:03:25.774Z,8.25
2022-10-18T03:04:50.485Z,8.38
2022-10-18T03:06:12.836Z,9.13
2022-10-18T03:07:36.171Z,13.00
2022-10-18T03:08:58.551Z,8.45
2022-10-18T03:10:21.916Z,9.10
2022-10-18T03:11:44.340Z,8.13
2022-10-18T03:13:07.910Z,8.43
2022-10-18T03:14:31.267Z,9.20
2022-10-18T03:15:53.759Z,10.32
2022-10-18T03:17:17.189Z,11.30
2022-10-18T03:18:39.571Z,8.55
2022-10-18T03:20:04.571Z,10.05
2022-10-18T03:21:29.382Z,8.00
2022-10-18T03:22:52.711Z,9.75
2022-10-18T03:24:16.196Z,10.52
2022-10-18T03:25:40.553Z,9.10
2022-10-18T03:27:06.403Z,10.00
2022-10-18T03:28:28.961Z,8.90
2022-10-18T03:29:52.319Z,10.73
2022-10-18T03:31:15.668Z,9.65
2022-10-18T03:32:39.203Z,11.00
2022-10-18T03:34:02.609Z,8.27
2022-10-18T03:35:27.372Z,10.13
2022-10-18T03:36:50.745Z,10.68
2022-10-18T03:38:13.180Z,10.15
2022-10-18T03:39:36.581Z,13.15
2022-10-18T03:40:58.935Z,7.95
2022-10-18T03:42:22.281Z,8.40
2022-10-18T03:43:44.822Z,8.00
2022-10-18T03:45:09.155Z,10.05
2022-10-18T03:46:32.593Z,7.75
2022-10-18T03:47:54.994Z,8.98
2022-10-18T03:49:20.873Z,7.60
2022-10-18T03:50:45.603Z,10.18
2022-10-18T03:52:08.972Z,14.18
2022-10-18T03:53:31.408Z,10.85
2022-10-18T03:54:54.769Z,9.35
2022-10-18T03:56:17.203Z,8.10
2022-10-18T03:57:40.559Z,7.35
2022-10-18T03:59:04.435Z,7.88
2022-10-18T04:00:27.859Z,12.55
2022-10-18T04:01:51.293Z,8.70
2022-10-18T04:03:14.658Z,8.05
2022-10-18T04:04:37.011Z,8.35
2022-10-18T04:06:03.482Z,10.13
2022-10-18T04:07:25.918Z,8.10
2022-10-18T04:08:49.275Z,12.23
2022-10-18T04:10:11.664Z,7.78
2022-10-18T04:11:35.224Z,10.23
2022-10-18T04:12:58.558Z,6.43
2022-10-18T04:14:22.071Z,9.00
2022-10-18T04:15:45.440Z,9.57
2022-10-18T04:17:07.929Z,6.95
2022-10-18T04:18:31.335Z,13.13
2022-10-18T04:19:53.687Z,7.57
2022-10-18T04:21:18.765Z,11.90
2022-10-18T04:22:42.484Z,10.50
2022-10-18T04:24:06.555Z,7.70
2022-10-18T04:25:29.353Z,5.78
2022-10-18T04:26:52.820Z,7.45
2022-10-18T04:28:16.252Z,6.47
2022-10-18T04:29:38.623Z,6.88
2022-10-18T04:31:02.113Z,8.90
2022-10-18T04:32:24.516Z,9.82
2022-10-18T04:33:47.907Z,15.20
2022-10-18T04:35:10.989Z,8.57
2022-10-18T04:36:35.732Z,7.85
2022-10-18T04:37:59.055Z,13.43
2022-10-18T04:39:21.833Z,11.43
2022-10-18T04:40:45.280Z,8.82
2022-10-18T04:42:08.682Z,7.15
2022-10-18T04:43:32.112Z,13.13
2022-10-18T04:44:55.157Z,12.40
2022-10-18T04:46:18.548Z,7.93
2022-10-18T04:47:41.877Z,9.40
2022-10-18T04:49:05.223Z,11.60
2022-10-18T04:50:28.619Z,9.65
2022-10-18T04:51:53.332Z,10.13
2022-10-18T04:53:16.834Z,7.97
2022-10-18T04:54:40.248Z,9.32
2022-10-18T04:56:03.656Z,10.68
2022-10-18T04:57:27.026Z,8.63
2022-10-18T04:58:49.452Z,10.73
2022-10-18T05:00:13.964Z,13.73
2022-10-18T05:01:37.817Z,6.45
2022-10-18T05:03:01.359Z,8.23
2022-10-18T05:04:24.754Z,8.20
2022-10-18T05:06:01.406Z,9.70
2022-10-18T05:07:27.356Z,9.25
2022-10-18T05:08:51.322Z,8.88
2022-10-18T05:10:13.703Z,11.77
2022-10-18T05:11:37.056Z,10.43
2022-10-18T05:12:59.446Z,13.73
2022-10-18T05:14:22.795Z,13.10
2022-10-18T05:15:48.209Z,8.18
2022-10-18T05:17:11.584Z,11.52
2022-10-18T05:18:35.486Z,9.85
2022-10-18T05:19:58.842Z,10.07
2022-10-18T05:21:22.223Z,9.75
2022-10-18T05:22:47.000Z,11.82
2022-10-18T05:24:11.392Z,9.15
2022-10-18T05:25:34.723Z,9.70
2022-10-18T05:26:58.224Z,9.77
2022-10-18T05:30:06.735Z,10.75
2022-10-18T05:31:30.130Z,12.15
2022-10-18T05:32:53.467Z,10.02
2022-10-18T05:34:20.615Z,11.35
2022-10-18T05:35:44.424Z,15.30
2022-10-18T05:37:07.909Z,9.75
2022-10-18T05:38:31.733Z,10.73
2022-10-18T05:39:55.160Z,10.40
2022-10-18T05:41:18.595Z,13.98
2022-10-18T05:42:40.976Z,13.20
2022-10-18T05:44:05.894Z,15.10
2022-10-18T05:45:28.397Z,11.25
2022-10-18T05:46:52.428Z,9.98
2022-10-18T05:48:14.977Z,15.30
2022-10-18T05:49:38.332Z,10.95
2022-10-18T05:51:02.426Z,13.55
2022-10-18T05:52:25.874Z,10.32
2022-10-18T05:53:50.685Z,11.02
2022-10-18T05:55:14.031Z,19.33
2022-10-18T05:58:05.928Z,11.77
2022-10-18T05:59:29.290Z,10.07
2022-10-18T06:00:52.768Z,11.48
2022-10-18T06:02:16.185Z,8.88
2022-10-18T06:03:39.860Z,11.10
2022-10-18T06:05:02.260Z,11.60
2022-10-18T06:06:25.616Z,8.98
2022-10-18T06:07:48.012Z,12.43
2022-10-18T06:09:12.795Z,14.82
2022-10-18T06:10:36.300Z,20.13
2022-10-18T06:12:00.051Z,10.85
2022-10-18T06:13:23.599Z,14.63
2022-10-18T06:14:47.387Z,16.02
2022-10-18T06:16:11.303Z,14.35
2022-10-18T06:17:35.204Z,17.15
2022-10-18T06:18:59.843Z,13.10
2022-10-18T06:20:24.053Z,14.27
2022-10-18T06:21:47.459Z,19.00
2022-10-18T06:23:11.078Z,22.15
2022-10-18T06:24:36.792Z,13.48
2022-10-18T06:26:01.282Z,14.13
2022-10-18T06:27:24.684Z,13.32
2022-10-18T06:28:48.319Z,15.73
2022-10-18T06:30:12.565Z,14.13
2022-10-18T06:31:35.962Z,16.65
2022-10-18T06:33:00.172Z,19.90
2022-10-18T06:34:23.651Z,13.70
2022-10-18T06:35:56.211Z,16.95
2022-10-18T06:37:19.580Z,19.33
2022-10-18T06:38:43.081Z,12.10
2022-10-18T06:40:09.326Z,14.43
2022-10-18T06:41:32.773Z,18.50
2022-10-18T06:43:00.812Z,12.20
2022-10-18T06:44:34.011Z,14.32
2022-10-18T06:45:57.504Z,14.43
2022-10-18T06:47:21.069Z,11.07
2022-10-18T06:48:45.140Z,12.63
2022-10-18T06:50:09.645Z,13.82
2022-10-18T06:51:33.013Z,11.65
2022-10-18T06:52:56.411Z,12.77
2022-10-18T06:54:19.802Z,11.65
2022-10-18T06:55:43.580Z,14.10
2022-10-18T06:57:07.035Z,16.95
2022-10-18T06:58:30.610Z,18.25
2022-10-18T06:59:53.964Z,14.15
2022-10-18T07:01:19.286Z,13.18
2022-10-18T07:02:42.757Z,13.70
2022-10-18T07:04:06.510Z,12.30
2022-10-18T07:05:29.209Z,12.32
2022-10-18T07:06:54.878Z,10.15
2022-10-18T07:08:18.814Z,16.52
2022-10-18T07:09:42.244Z,14.70
2022-10-18T07:11:07.655Z,11.02
2022-10-18T07:12:30.760Z,15.18
2022-10-18T07:13:55.118Z,10.98
2022-10-18T07:15:18.822Z,9.18
2022-10-18T07:16:42.241Z,9.00
2022-10-18T07:18:06.093Z,8.85
2022-10-18T07:19:29.477Z,13.43
2022-10-18T07:20:52.877Z,9.60
2022-10-18T07:22:16.329Z,8.82
2022-10-18T07:23:41.023Z,10.65
2022-10-18T07:25:04.597Z,11.52
2022-10-18T07:26:31.257Z,10.43
2022-10-18T07:27:54.663Z,14.73
2022-10-18T07:29:18.140Z,10.57
2022-10-18T07:30:41.542Z,11.35
2022-10-18T07:32:05.102Z,12.10
2022-10-18T07:33:31.208Z,8.55
2022-10-18T07:34:54.776Z,9.05
2022-10-18T07:36:18.764Z,12.23
2022-10-18T07:37:42.107Z,12.50
2022-10-18T07:39:05.790Z,9.48
2022-10-18T07:40:29.115Z,7.97
2022-10-18T07:41:54.169Z,9.32
2022-10-18T07:43:17.581Z,9.10
2022-10-18T07:44:41.439Z,7.82
2022-10-18T07:46:06.471Z,8.88
2022-10-18T07:47:32.727Z,8.38
2022-10-18T07:48:59.491Z,7.50
2022-10-18T07:50:23.196Z,12.30
2022-10-18T07:51:46.570Z,8.88
2022-10-18T07:53:08.910Z,7.32
2022-10-18T07:54:32.264Z,8.70
2022-10-18T07:56:01.401Z,6.65
2022-10-18T07:57:28.235Z,7.90
2022-10-18T07:58:53.720Z,6.90
2022-10-18T08:00:17.294Z,7.20
2022-10-18T08:01:41.031Z,7.40
2022-10-18T08:03:03.547Z,6.88
2022-10-18T08:04:26.950Z,8.38
2022-10-18T08:05:53.987Z,7.38
2022-10-18T08:07:17.389Z,8.10
2022-10-18T08:08:41.691Z,8.10
2022-10-18T08:10:05.741Z,7.20
2022-10-18T08:11:29.147Z,5.88
2022-10-18T08:12:55.437Z,10.20
2022-10-18T08:14:18.891Z,5.30
2022-10-18T08:15:42.366Z,6.80
2022-10-18T08:17:05.743Z,6.25
2022-10-18T08:18:29.263Z,6.10
2022-10-18T08:20:04.889Z,5.90
2022-10-18T08:21:35.918Z,6.57
2022-10-18T08:23:00.481Z,6.70
2022-10-18T08:24:24.230Z,7.00
2022-10-18T08:25:47.644Z,5.60
2022-10-18T08:27:11.066Z,7.20
2022-10-18T08:28:36.758Z,8.20
2022-10-18T08:30:02.029Z,6.13
2022-10-18T08:31:25.542Z,8.07
2022-10-18T08:32:48.874Z,7.78
2022-10-18T08:34:15.953Z,10.32
2022-10-18T08:35:42.953Z,8.90
2022-10-18T08:37:06.331Z,8.55
2022-10-18T08:38:32.132Z,8.82
2022-10-18T08:39:55.521Z,8.23
2022-10-18T08:41:29.001Z,10.02
2022-10-18T08:43:04.343Z,7.95
2022-10-18T08:44:31.474Z,9.68
2022-10-18T08:45:55.600Z,7.82
2022-10-18T08:47:20.832Z,8.38
2022-10-18T08:48:46.566Z,8.23
2022-10-18T08:50:15.945Z,9.38
2022-10-18T08:51:42.294Z,6.78
2022-10-18T08:53:14.315Z,11.40
2022-10-18T08:54:41.040Z,7.82
2022-10-18T08:56:11.070Z,11.45
2022-10-18T08:57:35.096Z,9.65
2022-10-18T08:58:58.791Z,7.35
2022-10-18T09:00:25.485Z,7.30
2022-10-18T09:01:58.007Z,10.30
2022-10-18T09:03:31.398Z,14.27
2022-10-18T09:05:01.506Z,8.50
2022-10-18T09:06:29.336Z,9.00
2022-10-18T09:08:14.695Z,7.88
2022-10-18T09:09:42.811Z,12.63
2022-10-18T09:11:17.424Z,7.40
2022-10-18T09:12:54.183Z,11.45
2022-10-18T09:14:52.154Z,6.82
2022-10-18T09:16:17.969Z,7.07
2022-10-18T09:17:49.133Z,8.35
2022-10-18T09:19:18.347Z,10.35
2022-10-18T09:20:52.767Z,7.00
2022-10-18T09:22:18.281Z,12.55
2022-10-18T09:23:47.616Z,5.75
2022-10-18T09:25:19.157Z,9.18
2022-10-18T09:26:46.973Z,8.07
2022-10-18T09:28:17.499Z,8.73
2022-10-18T09:29:55.241Z,8.43
2022-10-18T09:31:23.144Z,14.43
2022-10-18T09:32:51.816Z,8.52
2022-10-18T09:34:20.758Z,8.18
2022-10-18T09:35:46.345Z,7.45
2022-10-18T09:37:13.615Z,13.07
2022-10-18T09:38:46.072Z,10.70
2022-10-18T09:40:19.078Z,8.20
2022-10-18T09:41:48.199Z,7.35
2022-10-18T09:43:15.816Z,6.35
2022-10-18T09:44:42.524Z,7.50
2022-10-18T09:46:07.188Z,8.50
2022-10-18T09:47:36.001Z,7.68
2022-10-18T09:49:01.413Z,8.88
2022-10-18T09:50:28.051Z,5.20
2022-10-18T09:51:53.384Z,8.48
2022-10-18T09:53:20.149Z,9.70
2022-10-18T09:54:46.195Z,8.15
2022-10-18T09:56:12.574Z,13.98
2022-10-18T09:57:38.898Z,8.48
2022-10-18T09:59:02.348Z,8.88
2022-10-18T10:00:29.355Z,7.65
2022-10-18T10:01:52.814Z,5.50
2022-10-18T10:03:17.550Z,4.47
2022-10-18T10:04:42.790Z,5.18
2022-10-18T10:06:18.359Z,7.35
2022-10-18T10:07:44.962Z,7.97
2022-10-18T10:09:17.022Z,7.57
2022-10-18T10:10:42.214Z,4.88
2022-10-18T10:12:05.941Z,10.15
2022-10-18T10:13:29.387Z,7.25
2022-10-18T10:14:52.791Z,7.60
2022-10-18T10:16:15.191Z,6.80
2022-10-18T10:17:38.595Z,5.72
2022-10-18T10:19:03.354Z,9.48
2022-10-18T10:20:31.627Z,8.25
2022-10-18T10:21:58.672Z,7.15
2022-10-18T10:23:24.681Z,8.55
2022-10-18T10:24:51.654Z,6.13
2022-10-18T10:26:24.599Z,9.52
2022-10-18T10:27:48.198Z,6.72
2022-10-18T10:29:48.160Z,7.75
2022-10-18T10:31:28.327Z,10.45
2022-10-18T10:32:53.641Z,6.22
2022-10-18T10:34:22.118Z,9.55
2022-10-18T10:35:53.793Z,6.70
2022-10-18T10:37:27.248Z,6.65
2022-10-18T10:39:05.058Z,7.45
2022-10-18T10:40:30.293Z,6.43
2022-10-18T10:41:55.753Z,7.57
2022-10-18T10:43:37.182Z,9.77
2022-10-18T10:45:02.282Z,7.45
2022-10-18T10:46:26.397Z,7.43
2022-10-18T10:47:49.745Z,7.90
2022-10-18T10:49:39.191Z,6.93
2022-10-18T10:51:06.084Z,7.35
2022-10-18T10:52:31.517Z,6.18
2022-10-18T10:54:04.154Z,7.72
2022-10-18T10:55:35.258Z,9.23
2022-10-18T10:57:01.474Z,7.13
2022-10-18T10:58:25.285Z,6.47
2022-10-18T10:59:50.645Z,7.50
2022-10-18T11:01:23.001Z,9.15
2022-10-18T11:02:59.243Z,9.05
2022-10-18T11:04:32.367Z,5.68
2022-10-18T11:05:57.721Z,5.55
2022-10-18T11:07:25.897Z,5.97
2022-10-18T11:08:51.930Z,7.60
2022-10-18T11:10:17.303Z,4.43
2022-10-18T11:11:46.838Z,10.48
2022-10-18T11:13:24.292Z,7.70
2022-10-18T11:14:51.655Z,6.80
2022-10-18T11:16:18.035Z,9.75
2022-10-18T11:17:44.345Z,7.57
2022-10-18T11:19:16.068Z,6.10
2022-10-18T11:20:43.289Z,9.65
2022-10-18T11:22:08.494Z,6.30
2022-10-18T11:23:33.986Z,5.43
2022-10-18T11:24:56.721Z,6.85
2022-10-18T11:26:40.906Z,6.40
2022-10-18T11:28:10.405Z,6.03
2022-10-18T11:29:44.512Z,6.28
2022-10-18T11:31:18.524Z,6.57
2022-10-18T11:32:48.559Z,10.90
2022-10-18T11:34:29.946Z,5.60
2022-10-18T11:36:04.574Z,5.53
2022-10-18T11:37:41.795Z,6.47
2022-10-18T11:39:09.153Z,8.73
2022-10-18T11:40:49.428Z,4.35
2022-10-18T11:42:21.454Z,8.50
2022-10-18T11:44:02.349Z,5.95
2022-10-18T11:47:06.031Z,10.55
2022-10-18T11:48:47.923Z,4.13
2022-10-18T11:50:26.112Z,6.43
2022-10-18T11:52:14.624Z,6.20
2022-10-18T11:53:51.622Z,5.70
2022-10-18T11:55:32.048Z,4.40
2022-10-18T11:57:08.660Z,6.05
2022-10-18T11:58:53.618Z,8.30
2022-10-18T12:00:24.894Z,8.15
2022-10-18T12:01:58.450Z,3.80
2022-10-18T12:03:34.835Z,4.40
2022-10-18T12:06:48.751Z,8.98
2022-10-18T12:08:15.255Z,5.40
2022-10-18T12:09:40.254Z,4.18
2022-10-18T12:11:10.137Z,4.88
2022-10-18T12:12:35.720Z,3.80
2022-10-18T12:14:01.615Z,4.55
2022-10-18T12:15:26.799Z,5.38
2022-10-18T12:16:53.647Z,5.68
2022-10-18T12:18:25.753Z,4.35
2022-10-18T12:19:50.047Z,6.63
2022-10-18T12:21:14.456Z,5.03
2022-10-18T12:22:40.935Z,6.47
2022-10-18T12:24:08.997Z,6.03
2022-10-18T12:25:33.820Z,4.35
2022-10-18T12:27:00.431Z,5.78
2022-10-18T12:28:35.210Z,5.93
2022-10-18T12:30:03.419Z,7.18
2022-10-18T12:31:30.100Z,6.63
2022-10-18T12:33:03.704Z,5.38
2022-10-18T12:34:44.067Z,4.47
2022-10-18T12:36:19.444Z,7.88
2022-10-18T12:38:11.139Z,5.50
2022-10-18T12:39:57.677Z,7.75
2022-10-18T12:41:24.375Z,6.43
2022-10-18T12:42:49.462Z,8.70
2022-10-18T12:44:21.469Z,8.70
2022-10-18T12:45:53.738Z,10.43
2022-10-18T12:47:23.862Z,4.15
2022-10-18T12:48:51.984Z,5.40
2022-10-18T12:50:31.698Z,7.82
2022-10-18T12:51:58.032Z,8.52
2022-10-18T12:53:26.552Z,8.43
2022-10-18T12:55:07.535Z,10.93
2022-10-18T12:56:41.995Z,9.88
2022-10-18T12:58:22.741Z,6.80
2022-10-18T12:59:46.104Z,5.80
2022-10-18T13:01:10.070Z,6.25
2022-10-18T13:02:34.434Z,9.32
2022-10-18T13:03:59.047Z,5.80
2022-10-18T13:05:55.241Z,9.35
2022-10-18T13:07:22.661Z,9.98
2022-10-18T13:08:48.088Z,5.70
2022-10-18T13:10:42.667Z,8.13
2022-10-18T13:12:43.735Z,6.70
2022-10-18T13:14:53.422Z,6.63
2022-10-18T13:16:34.745Z,5.57
2022-10-18T13:18:01.828Z,6.20
2022-10-18T13:19:29.347Z,5.82
2022-10-18T13:21:04.544Z,4.90
2022-10-18T13:22:38.456Z,6.32
2022-10-18T13:24:20.463Z,7.03
2022-10-18T13:25:53.617Z,9.75
2022-10-18T13:27:38.702Z,7.85
2022-10-18T13:29:07.694Z,5.40
2022-10-18T13:30:43.276Z,8.63
2022-10-18T13:33:44.097Z,6.65
2022-10-18T13:35:46.973Z,6.10
2022-10-18T13:37:23.969Z,8.13
2022-10-18T13:38:48.752Z,5.47
2022-10-18T13:40:25.354Z,6.10
2022-10-18T13:42:21.824Z,5.82
2022-10-18T13:44:13.730Z,8.63
2022-10-18T13:45:55.754Z,7.10
2022-10-18T13:47:34.908Z,7.55
2022-10-18T13:49:01.618Z,6.72
2022-10-18T13:50:37.490Z,6.35
2022-10-18T13:52:06.588Z,8.55
2022-10-18T13:53:44.874Z,6.50
2022-10-18T13:55:23.625Z,10.45
2022-10-18T13:56:56.642Z,11.60
2022-10-18T13:58:28.182Z,6.50
2022-10-18T14:00:09.518Z,7.38
2022-10-18T14:01:40.298Z,9.25
2022-10-18T14:03:44.090Z,5.97
2022-10-18T14:05:25.078Z,7.72
2022-10-18T14:06:49.212Z,6.65
2022-10-18T14:08:15.596Z,9.77
2022-10-18T14:09:51.214Z,8.30
2022-10-18T14:11:25.584Z,13.57
2022-10-18T14:12:54.612Z,10.35
2022-10-18T14:14:28.597Z,8.95
2022-10-18T14:15:54.375Z,9.95
2022-10-18T14:17:26.671Z,11.20
2022-10-18T14:18:52.499Z,7.68
2022-10-18T14:20:24.790Z,7.25
2022-10-18T14:21:56.817Z,7.32
2022-10-18T14:23:22.555Z,13.30
2022-10-18T14:24:47.973Z,12.35
2022-10-18T14:26:17.497Z,8.07
2022-10-18T14:27:40.900Z,10.52
2022-10-18T14:29:06.015Z,7.10
2022-10-18T14:30:30.963Z,12.30
2022-10-18T14:31:56.294Z,10.73
2022-10-18T14:33:32.344Z,9.30
2022-10-18T14:35:14.359Z,8.27
2022-10-18T14:36:41.979Z,11.73
2022-10-18T14:38:05.824Z,15.85
2022-10-18T14:39:30.453Z,11.40
2022-10-18T14:41:06.379Z,9.05
2022-10-18T14:42:30.128Z,8.20
2022-10-18T14:43:54.852Z,10.88
2022-10-18T14:45:19.841Z,11.82
2022-10-18T14:46:46.241Z,11.57
2022-10-18T14:48:23.966Z,8.75
2022-10-18T14:49:47.801Z,8.43
2022-10-18T14:51:14.669Z,14.40
2022-10-18T14:52:38.049Z,9.02
2022-10-18T14:54:02.184Z,9.43
2022-10-18T14:55:28.625Z,17.92
2022-10-18T14:56:52.398Z,10.95
2022-10-18T14:58:17.916Z,11.20
2022-10-18T14:59:44.769Z,8.18
2022-10-18T15:01:09.044Z,13.05
2022-10-18T15:02:38.157Z,10.40
2022-10-18T15:04:04.484Z,8.93
2022-10-18T15:05:27.998Z,18.58
2022-10-18T15:06:51.532Z,9.30
2022-10-18T15:08:14.956Z,18.38
2022-10-18T15:09:38.806Z,12.00
2022-10-18T15:11:06.114Z,11.88
2022-10-18T15:12:40.939Z,8.20
2022-10-18T15:14:15.588Z,10.05
2022-10-18T15:15:39.653Z,8.65
2022-10-18T15:17:09.351Z,12.38
2022-10-18T15:18:37.021Z,12.27
2022-10-18T15:20:05.904Z,17.85
2022-10-18T15:21:29.002Z,10.90
2022-10-18T15:22:52.935Z,14.82
2022-10-18T15:24:34.806Z,16.77
2022-10-18T15:26:11.872Z,14.57
2022-10-18T15:27:38.088Z,9.95
2022-10-18T15:29:06.188Z,9.30
2022-10-18T15:30:37.849Z,14.85
2022-10-18T15:32:14.374Z,27.33
2022-10-18T15:33:39.211Z,19.00
2022-10-18T15:35:10.447Z,13.75
2022-10-18T15:36:34.051Z,10.43
2022-10-18T15:38:00.137Z,12.88
2022-10-18T15:39:24.268Z,11.20
2022-10-18T15:40:47.844Z,15.65
2022-10-18T15:42:36.292Z,19.80
2022-10-18T15:44:11.666Z,20.17
2022-10-18T15:45:39.404Z,10.27
2022-10-18T15:47:20.559Z,18.13
2022-10-18T15:48:47.457Z,13.82
2022-10-18T15:50:37.289Z,10.20
2022-10-18T15:52:38.661Z,15.07
2022-10-18T15:54:02.315Z,18.58
2022-10-18T15:55:46.933Z,14.80
2022-10-18T15:57:11.624Z,12.95
2022-10-18T15:58:43.840Z,13.70
2022-10-18T16:00:23.323Z,12.63
2022-10-18T16:01:46.745Z,12.90
2022-10-18T16:03:09.787Z,22.20
2022-10-18T16:04:35.087Z,18.67
2022-10-18T16:06:00.572Z,16.60
2022-10-18T16:07:23.949Z,13.00
2022-10-18T16:08:49.176Z,15.68
2022-10-18T16:10:14.932Z,14.43
2022-10-18T16:11:38.748Z,12.65
2022-10-18T16:13:01.568Z,16.27
2022-10-18T16:14:25.240Z,20.40
2022-10-18T16:15:47.787Z,17.48
2022-10-18T16:17:16.765Z,16.40
2022-10-18T16:18:39.300Z,14.55
2022-10-18T16:20:04.316Z,16.70
2022-10-18T16:21:29.566Z,15.98
2022-10-18T16:22:53.038Z,17.90
2022-10-18T16:24:17.087Z,12.73
2022-10-18T16:25:39.561Z,15.50
2022-10-18T16:27:02.961Z,17.05
2022-10-18T16:28:28.044Z,18.90
2022-10-18T16:29:51.550Z,15.88
2022-10-18T16:31:18.820Z,26.35
2022-10-18T16:32:42.261Z,24.63
2022-10-18T16:34:06.396Z,22.55
2022-10-18T16:35:30.193Z,17.83
2022-10-18T16:36:53.613Z,19.52
2022-10-18T16:38:22.807Z,17.35
2022-10-18T16:39:46.313Z,15.18
2022-10-18T16:41:10.531Z,14.68
2022-10-18T16:42:34.198Z,22.38
2022-10-18T16:43:57.739Z,17.55
2022-10-18T16:45:21.182Z,21.35
2022-10-18T16:46:45.052Z,22.95
2022-10-18T16:48:07.622Z,21.30
2022-10-18T16:49:31.168Z,19.88
2022-10-18T16:50:57.037Z,25.98
2022-10-18T16:52:20.443Z,18.02
2022-10-18T16:53:44.014Z,19.73
2022-10-18T16:55:14.815Z,21.38
2022-10-18T16:56:38.233Z,26.95
2022-10-18T16:58:01.970Z,22.40
2022-10-18T16:59:28.845Z,30.95
2022-10-18T17:00:52.353Z,21.67
2022-10-18T17:02:15.743Z,19.23
2022-10-18T17:03:39.158Z,23.45
2022-10-18T17:05:02.707Z,22.45
2022-10-18T17:06:29.200Z,24.30
2022-10-18T17:07:51.724Z,23.77
2022-10-18T17:09:17.903Z,28.33
2022-10-18T17:10:41.416Z,22.20
2022-10-18T17:12:05.412Z,18.67
2022-10-18T17:13:28.834Z,20.67
2022-10-18T17:14:51.263Z,27.83
2022-10-18T17:16:24.580Z,21.60
2022-10-18T17:17:49.844Z,36.50
2022-10-18T17:19:14.744Z,24.90
2022-10-18T17:20:38.129Z,29.83
2022-10-18T17:22:02.975Z,22.20
2022-10-18T17:23:26.462Z,20.95
2022-10-18T17:24:50.008Z,21.20
2022-10-18T17:26:28.456Z,24.48
2022-10-18T17:27:52.572Z,19.50
2022-10-18T17:29:16.049Z,17.80
2022-10-18T17:30:39.578Z,16.50
2022-10-18T17:32:02.928Z,22.08
2022-10-18T17:33:26.398Z,20.60
2022-10-18T17:34:49.810Z,24.27
2022-10-18T17:36:14.388Z,23.15
2022-10-18T17:37:43.930Z,33.08
2022-10-18T17:39:09.900Z,37.35
2022-10-18T17:40:33.415Z,34.00
2022-10-18T17:42:05.704Z,22.63
2022-10-18T17:43:29.097Z,19.83
2022-10-18T17:44:59.650Z,22.60
2022-10-18T17:46:28.944Z,35.25
2022-10-18T17:47:57.054Z,22.40
2022-10-18T17:49:22.089Z,22.25
2022-10-18T17:50:45.429Z,18.42
2022-10-18T17:52:08.805Z,29.15
2022-10-18T17:53:34.834Z,36.08
2022-10-18T17:54:58.425Z,35.15
2022-10-18T17:56:21.808Z,28.27
2022-10-18T17:57:45.581Z,29.80
2022-10-18T17:59:09.482Z,18.23
2022-10-18T18:00:33.247Z,23.98
2022-10-18T18:01:56.579Z,26.23
2022-10-18T18:03:19.031Z,17.38
2022-10-18T18:04:42.431Z,26.40
2022-10-18T18:06:14.638Z,22.60
2022-10-18T18:07:38.086Z,26.77
2022-10-18T18:09:04.823Z,29.70
2022-10-18T18:10:29.579Z,36.58
2022-10-18T18:11:53.730Z,26.15
2022-10-18T18:13:19.647Z,21.73
2022-10-18T18:14:43.169Z,19.88
2022-10-18T18:16:14.599Z,26.65
2022-10-18T18:17:55.888Z,20.27
2022-10-18T18:19:19.986Z,21.15
2022-10-18T18:20:42.323Z,36.85
2022-10-18T18:22:05.789Z,28.05
2022-10-18T18:23:29.270Z,23.27
2022-10-18T18:24:54.023Z,17.02
2022-10-18T18:26:17.793Z,39.65
2022-10-18T18:27:41.286Z,22.48
2022-10-18T18:29:04.888Z,23.95
2022-10-18T18:30:27.298Z,25.85
2022-10-18T18:31:50.935Z,19.30
2022-10-18T18:33:13.359Z,26.50
2022-10-18T18:34:38.003Z,25.60
2022-10-18T18:36:03.234Z,19.20
2022-10-18T18:37:26.650Z,29.10
2022-10-18T18:38:52.044Z,29.73
2022-10-18T18:40:20.638Z,22.33
2022-10-18T18:41:44.333Z,26.50
2022-10-18T18:43:22.617Z,30.58
2022-10-18T18:44:46.808Z,21.40
2022-10-18T18:46:11.417Z,18.98
2022-10-18T18:47:35.536Z,22.58
2022-10-18T18:49:02.435Z,23.60
2022-10-18T18:50:28.184Z,18.17
2022-10-18T18:51:51.590Z,24.08
2022-10-18T18:53:15.715Z,25.05
2022-10-18T18:54:39.131Z,15.90
2022-10-18T18:56:08.332Z,21.75
2022-10-18T18:57:34.880Z,38.97
2022-10-18T18:59:00.281Z,27.02
2022-10-18T19:00:26.167Z,35.22
2022-10-18T19:01:49.935Z,20.17
2022-10-18T19:03:13.718Z,19.35
2022-10-18T19:04:37.353Z,17.70
2022-10-18T19:06:04.138Z,16.23
2022-10-18T19:07:27.541Z,19.73
2022-10-18T19:08:54.171Z,17.92
2022-10-18T19:10:16.680Z,20.52
2022-10-18T19:11:43.069Z,15.55